Time;durP1;ratioP1;P1;durP2;ratioP2;P2;SDS_P1;SDS_P2;PMS_P1;PMS_P2;Temp;Humidity;BMP_temperature;BMP_pressure;BME280_temperature;BME280_humidity;BME280_pressure;Samples;Min_cycle;Max_cycle;Signal;HPM_P1;HPM_P2
2023/11/14 00:00:32;;;;;;;9.30;1.77;;;11.50;99.90;;;;;;5037634;28;20032;-38
2023/11/14 00:02:57;;;;;;;3.83;1.20;;;11.60;99.90;;;;;;5037386;28;20042;-38
2023/11/14 00:05:23;;;;;;;4.97;1.27;;;11.60;99.90;;;;;;5037681;28;20074;-38
2023/11/14 00:07:49;;;;;;;5.50;1.60;;;11.60;99.90;;;;;;5037492;28;20029;-38
2023/11/14 00:10:15;;;;;;;5.13;1.17;;;11.50;99.90;;;;;;5037568;28;20030;-37
2023/11/14 00:12:40;;;;;;;5.35;1.27;;;11.60;99.90;;;;;;5037409;28;20095;-38
2023/11/14 00:15:07;;;;;;;4.72;1.30;;;11.60;99.90;;;;;;5037467;28;20029;-38
2023/11/14 00:17:34;;;;;;;5.28;1.48;;;11.60;99.90;;;;;;5037435;28;20026;-38
2023/11/14 00:20:00;;;;;;;4.70;1.40;;;11.60;99.90;;;;;;5037753;28;20028;-38
2023/11/14 00:22:25;;;;;;;7.80;1.83;;;11.60;99.90;;;;;;5037422;28;20021;-38
2023/11/14 00:24:52;;;;;;;7.20;1.27;;;11.60;99.90;;;;;;5037449;28;20025;-38
2023/11/14 00:27:17;;;;;;;4.78;1.30;;;11.60;99.90;;;;;;5037292;28;20021;-38
2023/11/14 00:29:43;;;;;;;10.00;1.77;;;11.50;99.90;;;;;;5037365;28;20097;-38
2023/11/14 00:32:09;;;;;;;5.20;1.40;;;11.60;99.90;;;;;;5037231;28;20033;-38
2023/11/14 00:34:35;;;;;;;4.60;1.23;;;11.60;99.90;;;;;;5037474;28;20032;-38
2023/11/14 00:37:01;;;;;;;3.15;1.15;;;11.60;99.90;;;;;;5037173;28;20565;-38
2023/11/14 00:39:27;;;;;;;4.30;1.15;;;11.60;99.90;;;;;;5037419;28;20112;-38
2023/11/14 00:41:53;;;;;;;7.13;1.50;;;11.60;99.90;;;;;;5037226;28;20108;-38
2023/11/14 00:44:22;;;;;;;9.35;1.55;;;11.60;99.90;;;;;;5037243;28;20079;-38
2023/11/14 00:46:48;;;;;;;7.63;1.42;;;11.60;99.90;;;;;;5037100;28;20383;-38
2023/11/14 00:49:14;;;;;;;4.70;1.50;;;11.60;99.90;;;;;;5033293;28;20029;-38
2023/11/14 00:51:40;;;;;;;6.65;1.88;;;11.60;99.90;;;;;;5033963;28;20083;-38
2023/11/14 00:54:05;;;;;;;2.53;0.90;;;11.60;99.90;;;;;;5034102;28;20513;-38
2023/11/14 00:56:31;;;;;;;6.20;2.05;;;11.60;99.90;;;;;;5033987;28;20055;-38
2023/11/14 00:58:57;;;;;;;3.97;1.20;;;11.60;99.90;;;;;;5033823;28;20029;-38
2023/11/14 01:01:23;;;;;;;4.22;1.40;;;11.60;99.90;;;;;;5033994;28;20025;-38
2023/11/14 01:03:48;;;;;;;6.82;1.25;;;11.60;99.90;;;;;;5033905;28;20033;-38
2023/11/14 01:06:14;;;;;;;4.60;1.15;;;11.60;99.90;;;;;;5033841;28;20383;-38
2023/11/14 01:08:39;;;;;;;6.45;1.77;;;11.60;99.90;;;;;;5033734;28;20064;-38
2023/11/14 01:11:05;;;;;;;4.15;1.63;;;11.60;99.90;;;;;;5033669;28;20390;-38
2023/11/14 01:13:31;;;;;;;6.05;1.40;;;11.60;99.90;;;;;;5033586;28;20026;-38
2023/11/14 01:15:56;;;;;;;4.93;1.70;;;11.60;99.90;;;;;;5033447;28;20028;-38
2023/11/14 01:18:22;;;;;;;4.53;1.48;;;11.60;99.90;;;;;;5033705;28;20031;-37
2023/11/14 01:20:48;;;;;;;5.05;1.40;;;11.60;99.90;;;;;;5033649;28;20018;-38
2023/11/14 01:23:16;;;;;;;5.10;1.30;;;11.60;99.90;;;;;;5033504;28;20372;-38
2023/11/14 01:25:42;;;;;;;3.88;1.40;;;11.60;99.90;;;;;;5033472;28;20029;-37
2023/11/14 01:28:08;;;;;;;8.15;1.63;;;11.60;99.90;;;;;;5033230;28;20029;-38
2023/11/14 01:30:33;;;;;;;4.00;1.70;;;11.60;99.90;;;;;;5033400;28;20044;-37
2023/11/14 01:32:59;;;;;;;4.78;1.60;;;11.60;99.90;;;;;;5033191;28;20090;-38
2023/11/14 01:35:24;;;;;;;4.45;1.38;;;11.60;99.90;;;;;;5032978;28;20022;-38
2023/11/14 01:37:50;;;;;;;4.55;1.38;;;11.60;99.90;;;;;;5033147;28;20021;-38
2023/11/14 01:40:16;;;;;;;5.55;1.60;;;11.60;99.90;;;;;;5033255;28;20037;-38
2023/11/14 01:42:42;;;;;;;4.25;1.67;;;11.60;99.90;;;;;;5033019;28;20029;-37
2023/11/14 01:45:07;;;;;;;5.15;1.50;;;11.60;99.90;;;;;;5032925;28;20033;-38
2023/11/14 01:47:33;;;;;;;6.25;1.63;;;11.60;99.90;;;;;;5033024;28;20025;-37
2023/11/14 01:50:00;;;;;;;7.90;1.48;;;11.60;99.90;;;;;;5033132;28;20406;-38
2023/11/14 01:52:26;;;;;;;5.22;1.58;;;11.60;99.90;;;;;;5032845;28;20113;-38
2023/11/14 01:54:51;;;;;;;6.60;1.40;;;11.60;99.90;;;;;;5032948;28;20104;-38
2023/11/14 01:57:18;;;;;;;4.40;1.55;;;11.60;99.90;;;;;;5032751;28;20025;-38
2023/11/14 01:59:44;;;;;;;6.20;1.52;;;11.60;99.90;;;;;;5032690;28;20025;-38
2023/11/14 02:02:12;;;;;;;4.43;1.35;;;11.60;99.90;;;;;;5032992;28;20120;-37
2023/11/14 02:04:38;;;;;;;3.42;1.40;;;11.60;99.90;;;;;;5032817;28;20622;-37
2023/11/14 02:07:04;;;;;;;4.63;1.40;;;11.60;99.90;;;;;;5032594;28;20032;-37
2023/11/14 02:09:29;;;;;;;5.43;1.45;;;11.60;99.90;;;;;;5032580;28;20029;-37
2023/11/14 02:11:55;;;;;;;4.85;1.40;;;11.60;99.90;;;;;;5032259;28;20440;-37
2023/11/14 02:14:22;;;;;;;4.35;1.40;;;11.60;99.90;;;;;;5032495;28;20118;-37
2023/11/14 02:16:55;;;;;;;6.65;1.42;;;11.60;99.90;;;;;;5032434;28;20026;-37
2023/11/14 02:19:22;;;;;;;6.20;1.40;;;11.60;99.90;;;;;;5032538;28;20030;-37
2023/11/14 02:21:48;;;;;;;4.18;1.20;;;11.60;99.90;;;;;;5032445;28;20203;-37
2023/11/14 02:24:18;;;;;;;5.88;1.40;;;11.60;99.90;;;;;;5032369;28;20029;-37
2023/11/14 02:26:48;;;;;;;5.50;1.65;;;11.60;99.90;;;;;;5032162;28;20018;-37
2023/11/14 02:29:19;;;;;;;6.72;1.48;;;11.60;99.90;;;;;;5032351;28;20426;-37
2023/11/14 02:31:44;;;;;;;5.15;1.30;;;11.50;99.90;;;;;;5032266;28;20062;-37
2023/11/14 02:34:10;;;;;;;6.07;1.55;;;11.60;99.90;;;;;;5032138;28;20052;-37
2023/11/14 02:36:40;;;;;;;6.88;1.70;;;11.50;99.90;;;;;;5031958;28;20530;-37
2023/11/14 02:39:07;;;;;;;5.88;1.40;;;11.60;99.90;;;;;;5031989;28;20021;-37
2023/11/14 02:41:34;;;;;;;4.85;1.27;;;11.50;99.90;;;;;;5032339;28;20021;-38
2023/11/14 02:44:00;;;;;;;6.70;1.73;;;11.50;99.90;;;;;;5032008;28;20462;-37
2023/11/14 02:46:26;;;;;;;7.78;1.75;;;11.50;99.90;;;;;;5031786;28;20033;-37
2023/11/14 02:48:52;;;;;;;5.72;1.73;;;11.50;99.90;;;;;;5031633;28;20036;-37
2023/11/14 02:51:17;;;;;;;4.60;1.70;;;11.50;99.90;;;;;;5031808;28;20060;-37
2023/11/14 02:53:44;;;;;;;7.47;1.23;;;11.50;99.90;;;;;;5031691;28;20057;-37
2023/11/14 02:56:09;;;;;;;5.03;1.67;;;11.50;99.90;;;;;;5031754;28;20096;-37
2023/11/14 02:58:35;;;;;;;6.65;1.40;;;11.50;99.90;;;;;;5031900;28;20116;-37
2023/11/14 03:01:01;;;;;;;5.93;1.50;;;11.50;99.90;;;;;;5031593;28;20059;-37
2023/11/14 03:03:26;;;;;;;5.50;1.70;;;11.60;99.90;;;;;;5031722;28;20025;-37
2023/11/14 03:05:52;;;;;;;5.80;1.60;;;11.50;99.90;;;;;;5031581;28;20025;-37
2023/11/14 03:08:18;;;;;;;4.32;1.20;;;11.50;99.90;;;;;;5031453;28;20510;-37
2023/11/14 03:10:44;;;;;;;8.13;1.45;;;11.50;99.90;;;;;;5031062;28;20025;-37
2023/11/14 03:13:10;;;;;;;4.53;1.33;;;11.50;99.90;;;;;;5031535;28;20033;-37
2023/11/14 03:15:36;;;;;;;4.57;1.45;;;11.50;99.90;;;;;;5031428;28;20151;-37
2023/11/14 03:18:02;;;;;;;4.93;1.38;;;11.60;99.90;;;;;;5031344;28;20096;-37
2023/11/14 03:20:28;;;;;;;7.55;1.75;;;11.60;99.90;;;;;;5031560;28;20071;-37
2023/11/14 03:22:54;;;;;;;5.88;1.33;;;11.50;99.90;;;;;;5031338;28;20033;-38
2023/11/14 03:25:21;;;;;;;6.03;1.65;;;11.50;99.90;;;;;;5031415;28;20509;-38
2023/11/14 03:27:47;;;;;;;4.95;1.15;;;11.60;99.90;;;;;;5031429;28;20475;-37
2023/11/14 03:30:13;;;;;;;5.32;1.25;;;11.60;99.90;;;;;;5031420;28;20067;-37
2023/11/14 03:32:39;;;;;;;6.80;1.83;;;11.50;99.90;;;;;;5030930;28;20035;-38
2023/11/14 03:35:06;;;;;;;5.28;1.60;;;11.50;99.90;;;;;;5031274;28;20208;-38
2023/11/14 03:37:32;;;;;;;7.47;1.75;;;11.50;99.90;;;;;;5031233;28;20022;-37
2023/11/14 03:39:58;;;;;;;5.18;1.60;;;11.50;99.90;;;;;;5031323;28;20386;-37
2023/11/14 03:42:23;;;;;;;4.35;1.25;;;11.50;99.90;;;;;;5031411;28;20029;-38
2023/11/14 03:44:49;;;;;;;5.30;1.27;;;11.50;99.90;;;;;;5031353;28;20229;-37
2023/11/14 03:47:15;;;;;;;3.80;1.30;;;11.50;99.90;;;;;;5031176;28;20080;-37
2023/11/14 03:49:41;;;;;;;7.03;1.50;;;11.50;99.90;;;;;;5031318;28;20076;-37
2023/11/14 03:52:07;;;;;;;4.03;1.17;;;11.50;99.90;;;;;;5031056;28;20053;-37
2023/11/14 03:54:33;;;;;;;6.65;1.65;;;11.50;99.90;;;;;;5029757;28;20057;-38
2023/11/14 03:56:59;;;;;;;5.53;1.27;;;11.50;99.90;;;;;;5031143;28;20087;-38
2023/11/14 03:59:25;;;;;;;8.10;1.70;;;11.50;99.90;;;;;;5031516;28;20021;-37
2023/11/14 04:01:50;;;;;;;4.40;1.45;;;11.50;99.90;;;;;;5030974;28;20390;-37
2023/11/14 04:04:16;;;;;;;4.45;1.40;;;11.50;99.90;;;;;;5031136;28;20036;-38
2023/11/14 04:06:42;;;;;;;3.63;1.05;;;11.50;99.90;;;;;;5030844;28;20037;-38
2023/11/14 04:09:09;;;;;;;3.97;1.25;;;11.50;99.90;;;;;;5031089;28;20044;-37
2023/11/14 04:11:35;;;;;;;4.95;1.30;;;11.50;99.90;;;;;;5030941;28;20021;-37
2023/11/14 04:14:01;;;;;;;5.18;1.30;;;11.50;99.90;;;;;;5031024;28;20028;-37
2023/11/14 04:16:27;;;;;;;8.18;1.30;;;11.50;99.90;;;;;;5031316;28;20017;-37
2023/11/14 04:18:52;;;;;;;7.28;1.33;;;11.50;99.90;;;;;;5030957;28;20022;-37
2023/11/14 04:21:21;;;;;;;3.33;1.10;;;11.50;99.90;;;;;;5030808;28;20030;-37
2023/11/14 04:23:47;;;;;;;8.23;1.60;;;11.50;99.90;;;;;;5032676;28;20033;-37
2023/11/14 04:26:14;;;;;;;5.68;1.58;;;11.50;99.90;;;;;;5033402;28;20390;-38
2023/11/14 04:28:40;;;;;;;2.78;1.10;;;11.50;99.90;;;;;;5034495;28;20554;-37
2023/11/14 04:31:06;;;;;;;5.53;1.40;;;11.50;99.90;;;;;;5034597;28;20116;-38
2023/11/14 04:33:32;;;;;;;5.63;1.60;;;11.50;99.90;;;;;;5034544;28;20036;-37
2023/11/14 04:35:57;;;;;;;6.70;1.65;;;11.50;99.90;;;;;;5034441;28;20021;-37
2023/11/14 04:38:23;;;;;;;3.65;1.10;;;11.50;99.90;;;;;;5034359;28;20053;-38
2023/11/14 04:40:49;;;;;;;4.00;1.10;;;11.50;99.90;;;;;;5034478;28;20087;-38
2023/11/14 04:43:15;;;;;;;4.85;1.38;;;11.50;99.90;;;;;;5033097;28;20029;-37
2023/11/14 04:45:40;;;;;;;4.40;1.20;;;11.50;99.90;;;;;;5034354;28;20057;-37
2023/11/14 04:48:06;;;;;;;5.00;1.45;;;11.50;99.90;;;;;;5034207;28;20041;-37
2023/11/14 04:50:31;;;;;;;4.47;1.25;;;11.50;99.90;;;;;;5033009;28;20061;-37
2023/11/14 04:52:57;;;;;;;4.43;1.40;;;11.50;99.90;;;;;;5034084;28;20529;-37
2023/11/14 04:55:23;;;;;;;3.40;1.20;;;11.50;99.90;;;;;;5034128;28;20026;-37
2023/11/14 04:57:48;;;;;;;3.10;1.25;;;11.50;99.90;;;;;;5032811;28;20462;-37
2023/11/14 05:00:14;;;;;;;4.90;1.23;;;11.50;99.90;;;;;;5034058;28;20025;-38
2023/11/14 05:02:40;;;;;;;5.18;1.48;;;11.50;99.90;;;;;;5033755;28;20037;-38
2023/11/14 05:05:06;;;;;;;5.65;1.35;;;11.50;99.90;;;;;;5033677;28;20031;-37
2023/11/14 05:07:31;;;;;;;6.45;1.75;;;11.50;99.90;;;;;;5033808;28;20467;-38
2023/11/14 05:09:58;;;;;;;4.35;1.17;;;11.50;99.90;;;;;;5033944;28;20025;-37
2023/11/14 05:12:23;;;;;;;4.35;1.50;;;11.50;99.90;;;;;;5033805;28;20029;-37
2023/11/14 05:14:49;;;;;;;2.75;1.27;;;11.50;99.90;;;;;;5033775;28;20029;-37
2023/11/14 05:17:14;;;;;;;4.30;1.20;;;11.50;99.90;;;;;;5033521;28;20149;-38
2023/11/14 05:19:42;;;;;;;3.53;1.15;;;11.50;99.90;;;;;;5033957;28;20035;-37
2023/11/14 05:22:07;;;;;;;3.50;1.00;;;11.50;99.90;;;;;;5033618;28;20024;-38
2023/11/14 05:24:33;;;;;;;4.07;1.15;;;11.40;99.90;;;;;;5033589;28;20108;-37
2023/11/14 05:26:59;;;;;;;5.60;1.45;;;11.50;99.90;;;;;;5033444;28;20033;-38
2023/11/14 05:29:24;;;;;;;3.00;1.30;;;11.50;99.90;;;;;;5033337;28;20071;-36
2023/11/14 05:31:50;;;;;;;4.68;1.30;;;11.50;99.90;;;;;;5033447;28;20452;-38
2023/11/14 05:34:15;;;;;;;4.53;1.30;;;11.50;99.90;;;;;;5032963;28;20056;-37
2023/11/14 05:36:41;;;;;;;6.05;1.35;;;11.50;99.90;;;;;;5033311;28;20032;-37
2023/11/14 05:39:07;;;;;;;7.28;1.48;;;11.50;99.90;;;;;;5033548;28;20026;-37
2023/11/14 05:41:33;;;;;;;5.30;1.15;;;11.50;99.90;;;;;;5033495;28;20060;-37
2023/11/14 05:43:59;;;;;;;4.38;1.40;;;11.50;99.90;;;;;;5032259;28;20060;-37
2023/11/14 05:46:25;;;;;;;3.25;1.10;;;11.50;99.90;;;;;;5033285;28;20104;-37
2023/11/14 05:48:51;;;;;;;3.55;1.38;;;11.50;99.90;;;;;;5033181;28;20033;-38
2023/11/14 05:51:17;;;;;;;3.30;1.08;;;11.50;99.90;;;;;;5033110;28;20453;-38
2023/11/14 05:53:45;;;;;;;2.97;1.10;;;11.50;99.90;;;;;;5033253;28;20044;-37
2023/11/14 05:56:11;;;;;;;5.95;1.13;;;11.50;99.90;;;;;;5033075;28;20104;-38
2023/11/14 05:58:36;;;;;;;4.38;1.50;;;11.50;99.90;;;;;;5033064;28;20025;-38
2023/11/14 06:01:02;;;;;;;6.80;1.48;;;11.50;99.90;;;;;;5032648;28;20375;-37
2023/11/14 06:03:28;;;;;;;6.10;1.30;;;11.50;99.90;;;;;;5032798;28;20129;-37
2023/11/14 06:05:54;;;;;;;3.33;1.10;;;11.50;99.90;;;;;;5033018;28;20033;-38
2023/11/14 06:08:20;;;;;;;4.45;1.20;;;11.50;99.90;;;;;;5032203;28;20076;-37
2023/11/14 06:10:45;;;;;;;3.22;1.42;;;11.50;99.90;;;;;;5033330;28;20029;-37
2023/11/14 06:13:11;;;;;;;4.28;1.30;;;11.50;99.90;;;;;;5033396;28;20036;-37
2023/11/14 06:15:37;;;;;;;5.88;1.15;;;11.50;99.90;;;;;;5032866;28;20045;-37
2023/11/14 06:18:03;;;;;;;4.90;1.38;;;11.50;99.90;;;;;;5032802;28;20029;-37
2023/11/14 06:20:29;;;;;;;3.47;1.25;;;11.50;99.90;;;;;;5032504;28;20025;-38
2023/11/14 06:22:55;;;;;;;4.80;1.35;;;11.50;99.90;;;;;;5032724;28;20026;-38
2023/11/14 06:25:21;;;;;;;4.80;1.00;;;11.50;99.90;;;;;;5032577;28;20033;-37
2023/11/14 06:27:47;;;;;;;6.65;1.08;;;11.50;99.90;;;;;;5033021;28;20025;-37
2023/11/14 06:30:13;;;;;;;3.53;0.90;;;11.50;99.90;;;;;;5032404;28;20108;-38
2023/11/14 06:32:38;;;;;;;2.83;1.13;;;11.50;99.90;;;;;;5032055;28;20025;-37
2023/11/14 06:35:05;;;;;;;5.07;1.20;;;11.50;99.90;;;;;;5032341;28;20037;-38
2023/11/14 06:37:30;;;;;;;6.00;1.20;;;11.40;99.90;;;;;;5032179;28;20058;-38
2023/11/14 06:39:56;;;;;;;4.05;1.33;;;11.50;99.90;;;;;;5032675;28;20475;-38
2023/11/14 06:42:25;;;;;;;3.80;1.10;;;11.50;99.90;;;;;;5032562;28;20080;-37
2023/11/14 06:44:50;;;;;;;5.32;1.05;;;11.50;99.90;;;;;;5032541;28;20108;-38
2023/11/14 06:47:16;;;;;;;2.85;0.90;;;11.50;99.90;;;;;;5031412;28;20116;-38
2023/11/14 06:49:43;;;;;;;2.20;0.93;;;11.50;99.90;;;;;;5032475;28;20108;-38
2023/11/14 06:52:10;;;;;;;3.20;1.10;;;11.50;99.90;;;;;;5032154;28;20033;-39
2023/11/14 06:54:36;;;;;;;3.50;1.00;;;11.50;99.90;;;;;;5032275;28;20101;-38
2023/11/14 06:57:02;;;;;;;3.35;1.23;;;11.50;99.90;;;;;;5032159;28;20026;-39
2023/11/14 06:59:30;;;;;;;6.05;1.50;;;11.50;99.90;;;;;;5032013;28;20021;-39
2023/11/14 07:01:56;;;;;;;3.30;1.27;;;11.50;99.90;;;;;;5031599;28;20029;-38
2023/11/14 07:04:21;;;;;;;2.40;0.80;;;11.50;99.90;;;;;;5032159;28;20025;-38
2023/11/14 07:06:47;;;;;;;3.42;1.13;;;11.50;99.90;;;;;;5032074;28;20025;-38
2023/11/14 07:09:15;;;;;;;5.40;0.90;;;11.50;99.90;;;;;;5032462;28;20367;-37
2023/11/14 07:11:41;;;;;;;3.63;1.00;;;11.50;99.90;;;;;;5032122;28;20036;-38
2023/11/14 07:14:08;;;;;;;3.95;1.10;;;11.50;99.90;;;;;;5032051;28;20032;-39
2023/11/14 07:16:33;;;;;;;3.33;1.00;;;11.50;99.90;;;;;;5032063;28;20021;-39
2023/11/14 07:18:59;;;;;;;5.63;1.00;;;11.50;99.90;;;;;;5032184;28;20017;-38
2023/11/14 07:21:25;;;;;;;3.50;0.70;;;11.50;99.90;;;;;;5031966;28;20576;-39
2023/11/14 07:23:50;;;;;;;3.25;1.17;;;11.50;99.90;;;;;;5032082;28;20029;-38
2023/11/14 07:26:16;;;;;;;3.53;1.13;;;11.50;99.90;;;;;;5032387;28;20032;-41
2023/11/14 07:28:42;;;;;;;3.05;1.10;;;11.50;99.90;;;;;;5031891;28;20026;-38
2023/11/14 07:31:08;;;;;;;4.40;0.93;;;11.50;99.90;;;;;;5031518;28;20100;-38
2023/11/14 07:33:34;;;;;;;3.13;1.00;;;11.50;99.90;;;;;;5031994;28;20542;-37
2023/11/14 07:35:59;;;;;;;2.22;1.00;;;11.50;99.90;;;;;;5031961;28;20034;-38
2023/11/14 07:38:25;;;;;;;2.25;0.90;;;11.50;99.90;;;;;;5032048;28;20029;-38
2023/11/14 07:40:51;;;;;;;3.65;0.80;;;11.50;99.90;;;;;;5031896;28;20049;-38
2023/11/14 07:43:21;;;;;;;2.92;0.95;;;11.50;99.90;;;;;;5031899;28;20045;-38
2023/11/14 07:45:47;;;;;;;4.72;1.20;;;11.50;99.90;;;;;;5032201;28;20091;-38
2023/11/14 07:48:13;;;;;;;5.50;1.15;;;11.50;99.90;;;;;;5031888;28;20018;-38
2023/11/14 07:50:39;;;;;;;5.57;1.30;;;11.50;99.90;;;;;;5032010;28;20029;-38
2023/11/14 07:53:05;;;;;;;5.22;1.10;;;11.50;99.90;;;;;;5031733;28;20021;-38
2023/11/14 07:55:30;;;;;;;5.72;1.10;;;11.50;99.90;;;;;;5031556;28;20025;-39
2023/11/14 07:57:56;;;;;;;5.82;1.17;;;11.50;99.90;;;;;;5033506;28;20398;-39
2023/11/14 08:00:24;;;;;;;2.50;0.75;;;11.50;99.90;;;;;;5035205;28;20021;-37
2023/11/14 08:02:49;;;;;;;4.03;1.17;;;11.60;99.90;;;;;;5036097;28;20525;-38
2023/11/14 08:05:15;;;;;;;3.08;0.93;;;11.50;99.90;;;;;;5035624;28;20108;-37
2023/11/14 08:07:41;;;;;;;1.75;0.73;;;11.50;99.90;;;;;;5035399;28;20018;-37
2023/11/14 08:10:07;;;;;;;5.90;1.30;;;11.50;99.90;;;;;;5035513;28;20017;-37
2023/11/14 08:12:32;;;;;;;4.85;0.93;;;11.50;99.90;;;;;;5035600;28;20029;-38
2023/11/14 08:14:59;;;;;;;4.78;1.23;;;11.50;99.90;;;;;;5035054;28;20570;-38
2023/11/14 08:17:24;;;;;;;6.38;1.30;;;11.50;99.90;;;;;;5035126;28;20017;-39
2023/11/14 08:19:50;;;;;;;3.17;1.00;;;11.50;99.90;;;;;;5035059;28;20031;-40
2023/11/14 08:22:16;;;;;;;3.00;0.85;;;11.50;99.90;;;;;;5035432;28;20296;-39
2023/11/14 08:24:41;;;;;;;3.97;1.33;;;11.60;99.90;;;;;;5035402;28;20022;-37
2023/11/14 08:27:07;;;;;;;3.63;1.13;;;11.60;99.90;;;;;;5035052;28;20030;-38
2023/11/14 08:29:36;;;;;;;3.50;1.20;;;11.60;99.90;;;;;;5035012;28;20033;-37
2023/11/14 08:32:03;;;;;;;3.83;1.40;;;11.60;99.90;;;;;;5035078;28;20025;-37
2023/11/14 08:34:29;;;;;;;3.45;0.98;;;11.50;99.90;;;;;;5035352;28;20477;-37
2023/11/14 08:36:55;;;;;;;2.83;1.10;;;11.50;99.90;;;;;;5035091;28;20482;-37
2023/11/14 08:39:20;;;;;;;4.13;1.15;;;11.50;99.90;;;;;;5034962;28;20036;-37
2023/11/14 08:41:46;;;;;;;7.38;1.17;;;11.50;99.90;;;;;;5034972;28;20029;-38
2023/11/14 08:44:11;;;;;;;1.90;0.80;;;11.50;99.90;;;;;;5034973;28;20033;-40
2023/11/14 08:46:37;;;;;;;3.35;1.05;;;11.50;99.90;;;;;;5034978;28;20409;-38
2023/11/14 08:49:07;;;;;;;3.00;0.90;;;11.50;99.90;;;;;;5034752;28;20025;-37
2023/11/14 08:51:36;;;;;;;2.70;1.00;;;11.50;99.90;;;;;;5034514;28;20116;-38
2023/11/14 08:54:01;;;;;;;2.97;1.10;;;11.50;99.90;;;;;;5034422;28;20049;-37
2023/11/14 08:56:29;;;;;;;3.22;0.90;;;11.50;99.90;;;;;;5034930;28;20049;-38
2023/11/14 08:58:58;;;;;;;6.15;1.25;;;11.50;99.90;;;;;;5034532;28;20021;-38
2023/11/14 09:01:24;;;;;;;2.35;0.90;;;11.50;99.90;;;;;;5034150;28;20437;-37
2023/11/14 09:03:50;;;;;;;5.55;1.15;;;11.50;99.90;;;;;;5034829;28;20037;-37
2023/11/14 09:06:16;;;;;;;2.38;0.85;;;11.50;99.90;;;;;;5034732;28;20513;-38
2023/11/14 09:08:42;;;;;;;4.72;1.33;;;11.50;99.90;;;;;;5033527;28;20502;-38
2023/11/14 09:11:08;;;;;;;2.72;1.10;;;11.50;99.90;;;;;;5034364;28;20033;-37
2023/11/14 09:13:34;;;;;;;1.95;0.95;;;11.60;99.90;;;;;;5033887;28;20429;-37
2023/11/14 09:16:01;;;;;;;2.80;1.30;;;11.50;99.90;;;;;;5034427;28;20014;-37
2023/11/14 09:18:27;;;;;;;3.03;1.00;;;11.50;99.90;;;;;;5033928;28;20056;-41
2023/11/14 09:20:55;;;;;;;4.53;1.63;;;11.50;99.90;;;;;;5034020;28;20056;-37
2023/11/14 09:23:21;;;;;;;12.02;1.52;;;11.50;99.90;;;;;;5033453;28;20086;-35
2023/11/14 09:25:47;;;;;;;8.02;1.45;;;11.40;99.90;;;;;;5033481;28;20420;-35
2023/11/14 09:28:12;;;;;;;182.27;7.70;;;11.30;99.90;;;;;;5033835;28;20030;-39
2023/11/14 09:30:38;;;;;;;22.67;2.00;;;11.30;99.90;;;;;;5033549;28;20123;-39
2023/11/14 09:33:05;;;;;;;119.45;6.15;;;11.30;99.90;;;;;;5033356;28;20471;-39
2023/11/14 09:35:31;;;;;;;15.68;1.98;;;11.30;99.90;;;;;;5033497;28;20040;-32
2023/11/14 09:37:57;;;;;;;58.88;2.60;;;;;;;;;;5309598;22;20037;-40
2023/11/14 09:40:25;;;;;;;577.30;60.97;;;12.00;99.90;;;;;;5013741;28;20087;-41
2023/11/14 09:42:53;;;;;;;13.95;1.90;;;;;;;;;;5049400;28;20032;-43
2023/11/14 09:45:20;;;;;;;81.15;4.68;;;13.80;99.90;;;;;;5045904;28;20508;-52
2023/11/14 09:47:46;;;;;;;26.40;2.13;;;14.10;99.90;;;;;;5051484;28;20056;-24
2023/11/14 09:50:12;;;;;;;11.60;1.50;;;13.80;99.90;;;;;;5050950;28;20029;-42
2023/11/14 09:52:38;;;;;;;10.82;1.33;;;13.10;99.90;;;;;;5054343;28;20098;-43
2023/11/14 09:55:05;;;;;;;5.63;0.80;;;12.50;99.90;;;;;;5054112;28;20108;-36
2023/11/14 09:57:33;;;;;;;3.67;1.00;;;12.80;99.90;;;;;;4962239;28;20109;-44
2023/11/14 10:00:00;;;;;;;4.75;1.00;;;13.70;99.90;;;;;;4991689;28;20041;-45
2023/11/14 10:02:26;;;;;;;2.03;0.70;;;14.70;99.90;;;;;;4993280;28;20598;-44
2023/11/14 10:04:51;;;;;;;3.53;0.77;;;15.80;99.90;;;;;;4987553;28;20535;-45
2023/11/14 10:07:20;;;;;;;3.80;0.82;;;16.20;99.90;;;;;;4991323;28;20117;-43
2023/11/14 10:09:47;;;;;;;4.88;0.90;;;16.50;99.90;;;;;;4990938;28;20037;-45
2023/11/14 10:12:30;;;;;;;5.00;1.05;;;16.60;99.90;;;;;;4990666;28;20407;-45
2023/11/14 10:14:56;;;;;;;2.47;0.60;;;16.70;99.90;;;;;;4990503;28;20440;-46
2023/11/14 10:17:26;;;;;;;5.40;1.00;;;16.70;99.90;;;;;;4990138;28;20057;-42
2023/11/14 10:19:58;;;;;;;3.80;0.80;;;16.70;99.90;;;;;;4990311;28;20034;-46
2023/11/14 10:22:23;;;;;;;4.03;0.85;;;17.10;99.90;;;;;;4990228;28;20137;-44
2023/11/14 10:24:50;;;;;;;3.67;0.90;;;17.50;99.90;;;;;;4990440;28;20096;-46
2023/11/14 10:27:33;;;;;;;3.95;1.00;;;17.70;99.90;;;;;;4991145;28;20034;-46
2023/11/14 10:29:59;;;;;;;2.45;0.80;;;17.80;99.90;;;;;;4990744;28;20597;-45
2023/11/14 10:32:25;;;;;;;5.85;1.20;;;17.80;99.90;;;;;;4990969;28;20038;-46
2023/11/14 10:34:51;;;;;;;1.92;0.65;;;17.80;99.90;;;;;;4990695;28;20039;-45
2023/11/14 10:37:33;;;;;;;3.33;1.00;;;17.70;99.90;;;;;;4990446;28;20026;-44
2023/11/14 10:40:01;;;;;;;3.17;0.90;;;18.10;99.90;;;;;;4958484;28;20550;-46
2023/11/14 10:42:27;;;;;;;2.45;0.82;;;18.40;99.90;;;;;;4982303;28;20038;-43
2023/11/14 10:45:01;;;;;;;2.15;0.70;;;18.50;99.90;;;;;;4989874;28;20463;-46
2023/11/14 10:47:37;;;;;;;3.03;0.65;;;18.50;99.90;;;;;;4990471;28;20023;-45
2023/11/14 10:50:04;;;;;;;2.08;0.60;;;18.50;99.90;;;;;;4999293;28;20053;-45
2023/11/14 10:52:37;;;;;;;2.10;0.90;;;18.50;99.90;;;;;;5009469;28;20030;-44
2023/11/14 10:55:05;;;;;;;3.78;0.70;;;18.40;99.90;;;;;;5009182;28;20065;-44
2023/11/14 10:57:32;;;;;;;1.85;0.70;;;18.40;99.90;;;;;;5025516;28;20029;-46
2023/11/14 10:59:59;;;;;;;1.27;0.65;;;18.40;99.90;;;;;;5009314;28;20057;-46
2023/11/14 11:02:32;;;;;;;2.13;0.80;;;18.40;99.90;;;;;;5012766;28;20092;-44
2023/11/14 11:05:03;;;;;;;2.72;0.70;;;18.40;99.90;;;;;;5012238;28;20026;-46
2023/11/14 11:07:28;;;;;;;1.98;0.80;;;18.30;99.90;;;;;;5013052;28;20034;-45
2023/11/14 11:09:55;;;;;;;3.63;0.70;;;18.30;99.90;;;;;;5012713;28;20169;-44
2023/11/14 11:12:26;;;;;;;1.55;0.70;;;18.30;99.90;;;;;;5012177;28;20398;-42
2023/11/14 11:14:53;;;;;;;1.50;0.70;;;18.30;99.90;;;;;;5012561;28;20033;-44
2023/11/14 11:17:41;;;;;;;1.80;0.52;;;18.20;99.90;;;;;;5012506;28;20076;-44
2023/11/14 11:20:21;;;;;;;1.48;0.50;;;18.20;99.90;;;;;;5013254;28;20028;-46
2023/11/14 11:23:10;;;;;;;2.03;0.30;;;18.20;99.90;;;;;;5011781;28;20018;-44
2023/11/14 11:25:37;;;;;;;1.55;0.60;;;18.20;99.90;;;;;;5011658;28;20018;-41
2023/11/14 11:28:28;;;;;;;0.93;0.50;;;18.20;99.90;;;;;;5012098;28;20038;-44
2023/11/14 11:31:06;;;;;;;3.75;0.47;;;18.20;99.90;;;;;;5012060;28;20105;-43
2023/11/14 11:33:33;;;;;;;2.08;0.50;;;18.20;99.90;;;;;;5011200;28;20373;-42
2023/11/14 11:36:35;;;;;;;1.40;0.60;;;18.20;99.90;;;;;;5012939;28;20037;-43
2023/11/14 11:39:01;;;;;;;1.08;0.43;;;18.20;99.90;;;;;;5009604;28;20124;-45
2023/11/14 11:41:34;;;;;;;1.02;0.50;;;18.20;99.90;;;;;;5011856;28;20041;-42
2023/11/14 11:44:10;;;;;;;1.70;0.60;;;18.20;99.90;;;;;;5011632;28;20072;-43
2023/11/14 11:46:46;;;;;;;1.25;0.50;;;18.20;99.90;;;;;;5012814;28;20025;-42
2023/11/14 11:49:22;;;;;;;1.10;0.55;;;18.20;99.90;;;;;;5012513;28;20501;-43
2023/11/14 11:51:49;;;;;;;1.55;0.50;;;18.30;99.90;;;;;;5011505;28;20445;-44
2023/11/14 11:54:27;;;;;;;1.20;0.70;;;18.20;99.90;;;;;;5012230;28;20113;-44
2023/11/14 11:57:10;;;;;;;1.27;0.60;;;18.20;99.90;;;;;;5012049;28;20522;-44
2023/11/14 11:59:42;;;;;;;1.23;0.52;;;18.30;99.90;;;;;;5012410;28;20033;-43
2023/11/14 12:02:18;;;;;;;1.00;0.47;;;18.30;99.90;;;;;;5012790;28;20076;-44
2023/11/14 12:04:46;;;;;;;1.13;0.47;;;18.30;99.90;;;;;;5012506;28;20056;-44
2023/11/14 12:07:11;;;;;;;1.13;0.50;;;18.20;99.90;;;;;;5011355;28;20034;-43
2023/11/14 12:09:39;;;;;;;1.15;0.45;;;18.30;99.90;;;;;;5013124;28;20483;-45
2023/11/14 12:12:05;;;;;;;0.85;0.40;;;18.30;99.90;;;;;;5012215;28;20049;-43
2023/11/14 12:14:30;;;;;;;1.90;0.70;;;18.30;99.90;;;;;;5011277;28;20495;-45
2023/11/14 12:16:57;;;;;;;1.13;0.60;;;18.30;99.90;;;;;;5011136;28;20034;-44
2023/11/14 12:19:23;;;;;;;1.55;0.60;;;18.30;99.90;;;;;;5011265;28;20049;-43
2023/11/14 12:21:50;;;;;;;3.13;0.50;;;18.30;99.90;;;;;;5011430;28;20022;-44
2023/11/14 12:24:16;;;;;;;1.35;0.40;;;18.30;99.90;;;;;;5011647;28;20030;-43
2023/11/14 12:26:42;;;;;;;0.80;0.50;;;18.30;99.90;;;;;;5011088;28;20022;-43
2023/11/14 12:29:12;;;;;;;0.88;0.45;;;18.30;99.90;;;;;;5011719;28;20064;-42
2023/11/14 12:31:43;;;;;;;1.33;0.40;;;18.40;99.90;;;;;;5011624;28;20386;-44
2023/11/14 12:34:08;;;;;;;3.17;0.40;;;18.30;99.90;;;;;;5011044;28;20036;-44
2023/11/14 12:36:34;;;;;;;1.92;0.60;;;18.40;99.90;;;;;;5011447;28;20026;-44
2023/11/14 12:39:19;;;;;;;1.00;0.40;;;18.30;99.90;;;;;;5011452;28;20457;-44
2023/11/14 12:41:47;;;;;;;0.90;0.40;;;18.40;99.90;;;;;;5011201;28;20574;-40
2023/11/14 12:44:15;;;;;;;0.93;0.38;;;18.40;99.90;;;;;;5011912;28;20026;-44
2023/11/14 12:46:43;;;;;;;0.75;0.40;;;18.40;99.90;;;;;;5015329;28;20573;-44